sensor_id;sensor_type;location;lat;lon;timestamp;temperature;humidity
43808;DHT22;29438;50.664;10.098;2023-02-28T00:00:16;-3274.50;83.10
43808;DHT22;29438;50.664;10.098;2023-02-28T00:02:43;-3274.50;83.00
43808;DHT22;29438;50.664;10.098;2023-02-28T00:05:11;-3274.50;82.80
43808;DHT22;29438;50.664;10.098;2023-02-28T00:07:37;-3274.50;83.10
43808;DHT22;29438;50.664;10.098;2023-02-28T00:10:04;-3274.40;83.40
43808;DHT22;29438;50.664;10.098;2023-02-28T00:12:31;-3274.40;83.10
43808;DHT22;29438;50.664;10.098;2023-02-28T00:14:57;-3274.40;83.20
43808;DHT22;29438;50.664;10.098;2023-02-28T00:17:22;-3274.40;83.10
43808;DHT22;29438;50.664;10.098;2023-02-28T00:19:49;-3274.50;82.60
43808;DHT22;29438;50.664;10.098;2023-02-28T00:22:19;-3274.60;82.80
43808;DHT22;29438;50.664;10.098;2023-02-28T00:24:45;-3274.50;82.80
43808;DHT22;29438;50.664;10.098;2023-02-28T00:27:12;-3274.40;82.90
43808;DHT22;29438;50.664;10.098;2023-02-28T00:29:38;-3274.40;83.10
43808;DHT22;29438;50.664;10.098;2023-02-28T00:32:05;-3274.40;83.10
43808;DHT22;29438;50.664;10.098;2023-02-28T00:34:31;-3274.30;83.00
43808;DHT22;29438;50.664;10.098;2023-02-28T00:37:06;-3274.20;83.10
43808;DHT22;29438;50.664;10.098;2023-02-28T00:39:33;-3274.10;83.30
43808;DHT22;29438;50.664;10.098;2023-02-28T00:41:59;-3274.00;83.50
43808;DHT22;29438;50.664;10.098;2023-02-28T00:44:25;-3274.10;83.40
43808;DHT22;29438;50.664;10.098;2023-02-28T00:46:50;-3274.10;83.00
43808;DHT22;29438;50.664;10.098;2023-02-28T00:49:17;-3274.00;83.20
43808;DHT22;29438;50.664;10.098;2023-02-28T00:51:42;-3273.90;83.40
43808;DHT22;29438;50.664;10.098;2023-02-28T00:54:08;-3273.90;83.60
43808;DHT22;29438;50.664;10.098;2023-02-28T00:56:34;-3273.90;83.30
43808;DHT22;29438;50.664;10.098;2023-02-28T00:58:59;-3274.00;83.10
43808;DHT22;29438;50.664;10.098;2023-02-28T01:01:24;-3273.90;83.30
43808;DHT22;29438;50.664;10.098;2023-02-28T01:03:50;-3273.80;83.60
43808;DHT22;29438;50.664;10.098;2023-02-28T01:06:15;-3273.80;83.50
43808;DHT22;29438;50.664;10.098;2023-02-28T01:08:41;-3273.70;83.70
43808;DHT22;29438;50.664;10.098;2023-02-28T01:11:09;-3273.70;83.80
43808;DHT22;29438;50.664;10.098;2023-02-28T01:13:35;-3273.70;84.20
43808;DHT22;29438;50.664;10.098;2023-02-28T01:16:00;-3273.80;83.70
43808;DHT22;29438;50.664;10.098;2023-02-28T01:18:26;-3273.80;83.60
43808;DHT22;29438;50.664;10.098;2023-02-28T01:20:51;-3273.90;83.50
43808;DHT22;29438;50.664;10.098;2023-02-28T01:23:19;-3273.90;83.30
43808;DHT22;29438;50.664;10.098;2023-02-28T01:25:45;-3273.90;83.40
43808;DHT22;29438;50.664;10.098;2023-02-28T01:28:11;-3274.00;83.00
43808;DHT22;29438;50.664;10.098;2023-02-28T01:30:36;-3273.90;83.40
43808;DHT22;29438;50.664;10.098;2023-02-28T01:33:02;-3273.80;83.60
43808;DHT22;29438;50.664;10.098;2023-02-28T01:35:27;-3273.70;83.70
43808;DHT22;29438;50.664;10.098;2023-02-28T01:37:53;-3273.70;84.40
43808;DHT22;29438;50.664;10.098;2023-02-28T01:40:19;-3273.70;84.30
43808;DHT22;29438;50.664;10.098;2023-02-28T01:42:44;-3273.70;84.20
43808;DHT22;29438;50.664;10.098;2023-02-28T01:45:29;-3273.80;84.10
43808;DHT22;29438;50.664;10.098;2023-02-28T01:48:05;-3273.80;84.10
43808;DHT22;29438;50.664;10.098;2023-02-28T01:50:37;-3273.80;84.30
43808;DHT22;29438;50.664;10.098;2023-02-28T01:53:07;-3273.90;84.00
43808;DHT22;29438;50.664;10.098;2023-02-28T01:55:34;-3274.00;83.90
43808;DHT22;29438;50.664;10.098;2023-02-28T01:58:04;-3274.10;83.70
43808;DHT22;29438;50.664;10.098;2023-02-28T02:00:31;-3274.00;83.70
43808;DHT22;29438;50.664;10.098;2023-02-28T02:02:59;-3274.00;83.90
43808;DHT22;29438;50.664;10.098;2023-02-28T02:05:28;-3274.10;83.60
43808;DHT22;29438;50.664;10.098;2023-02-28T02:08:01;-3274.20;83.10
43808;DHT22;29438;50.664;10.098;2023-02-28T02:22:12;-3274.20;83.00
43808;DHT22;29438;50.664;10.098;2023-02-28T02:25:07;-3274.20;83.00
43808;DHT22;29438;50.664;10.098;2023-02-28T02:27:57;-3274.20;83.20
43808;DHT22;29438;50.664;10.098;2023-02-28T02:30:58;-3274.20;83.20
43808;DHT22;29438;50.664;10.098;2023-02-28T02:39:04;-3274.20;83.40
43808;DHT22;29438;50.664;10.098;2023-02-28T02:42:05;-3274.20;83.50
43808;DHT22;29438;50.664;10.098;2023-02-28T02:46:55;-3274.20;83.60
43808;DHT22;29438;50.664;10.098;2023-02-28T02:49:28;-3274.10;83.80
43808;DHT22;29438;50.664;10.098;2023-02-28T02:51:56;-3274.10;83.90
43808;DHT22;29438;50.664;10.098;2023-02-28T02:54:26;-3274.10;83.80
43808;DHT22;29438;50.664;10.098;2023-02-28T02:56:55;-3274.10;84.00
43808;DHT22;29438;50.664;10.098;2023-02-28T02:59:22;-3274.00;84.30
43808;DHT22;29438;50.664;10.098;2023-02-28T03:01:52;-3274.10;84.40
43808;DHT22;29438;50.664;10.098;2023-02-28T03:04:23;-3274.10;84.20
43808;DHT22;29438;50.664;10.098;2023-02-28T03:06:51;-3274.20;84.10
43808;DHT22;29438;50.664;10.098;2023-02-28T03:09:21;-3274.20;83.90
43808;DHT22;29438;50.664;10.098;2023-02-28T03:11:48;-3274.20;83.80
43808;DHT22;29438;50.664;10.098;2023-02-28T03:20:04;-3274.20;83.80
43808;DHT22;29438;50.664;10.098;2023-02-28T03:25:38;-3274.20;83.70
43808;DHT22;29438;50.664;10.098;2023-02-28T03:31:19;-3274.20;83.50
43808;DHT22;29438;50.664;10.098;2023-02-28T03:36:32;-3274.20;83.80
43808;DHT22;29438;50.664;10.098;2023-02-28T03:39:02;-3274.10;84.10
43808;DHT22;29438;50.664;10.098;2023-02-28T03:41:51;-3274.20;84.00
43808;DHT22;29438;50.664;10.098;2023-02-28T03:44:22;-3274.20;84.00
43808;DHT22;29438;50.664;10.098;2023-02-28T03:46:57;-3274.20;83.80
43808;DHT22;29438;50.664;10.098;2023-02-28T03:49:28;-3274.20;84.10
43808;DHT22;29438;50.664;10.098;2023-02-28T03:51:58;-3274.20;84.30
43808;DHT22;29438;50.664;10.098;2023-02-28T03:54:33;-3274.20;84.10
43808;DHT22;29438;50.664;10.098;2023-02-28T03:57:34;-3274.20;84.00
43808;DHT22;29438;50.664;10.098;2023-02-28T04:00:08;-3274.20;84.20
43808;DHT22;29438;50.664;10.098;2023-02-28T04:02:42;-3274.20;84.20
43808;DHT22;29438;50.664;10.098;2023-02-28T04:05:08;-3274.20;84.40
43808;DHT22;29438;50.664;10.098;2023-02-28T04:07:34;-3274.20;84.60
43808;DHT22;29438;50.664;10.098;2023-02-28T04:10:00;-3274.30;84.40
43808;DHT22;29438;50.664;10.098;2023-02-28T04:12:25;-3274.30;84.20
43808;DHT22;29438;50.664;10.098;2023-02-28T04:14:51;-3274.20;84.40
43808;DHT22;29438;50.664;10.098;2023-02-28T04:17:17;-3274.20;84.60
43808;DHT22;29438;50.664;10.098;2023-02-28T04:19:43;-3274.20;84.60
43808;DHT22;29438;50.664;10.098;2023-02-28T04:22:09;-3274.20;84.70
43808;DHT22;29438;50.664;10.098;2023-02-28T04:24:35;-3274.20;84.50
43808;DHT22;29438;50.664;10.098;2023-02-28T04:27:01;-3274.20;84.40
43808;DHT22;29438;50.664;10.098;2023-02-28T04:29:29;-3274.20;84.60
43808;DHT22;29438;50.664;10.098;2023-02-28T04:31:55;-3274.20;84.50
43808;DHT22;29438;50.664;10.098;2023-02-28T04:34:23;-3274.10;84.60
43808;DHT22;29438;50.664;10.098;2023-02-28T04:36:49;-3274.10;84.80
43808;DHT22;29438;50.664;10.098;2023-02-28T04:39:16;-3274.00;84.90
43808;DHT22;29438;50.664;10.098;2023-02-28T04:41:44;-3274.00;84.60
43808;DHT22;29438;50.664;10.098;2023-02-28T04:44:09;-3273.90;84.80
43808;DHT22;29438;50.664;10.098;2023-02-28T04:46:35;-3273.90;84.80
43808;DHT22;29438;50.664;10.098;2023-02-28T04:49:00;-3273.80;85.00
43808;DHT22;29438;50.664;10.098;2023-02-28T04:51:26;-3273.70;85.30
43808;DHT22;29438;50.664;10.098;2023-02-28T04:53:52;-3273.70;85.40
43808;DHT22;29438;50.664;10.098;2023-02-28T04:56:18;-3273.70;85.80
43808;DHT22;29438;50.664;10.098;2023-02-28T04:58:44;-3273.70;85.80
43808;DHT22;29438;50.664;10.098;2023-02-28T05:01:19;-3273.50;85.70
43808;DHT22;29438;50.664;10.098;2023-02-28T05:03:45;-3273.40;86.40
43808;DHT22;29438;50.664;10.098;2023-02-28T05:06:12;-3273.40;86.80
43808;DHT22;29438;50.664;10.098;2023-02-28T05:08:38;-3273.30;87.00
43808;DHT22;29438;50.664;10.098;2023-02-28T05:11:07;-3273.30;87.10
43808;DHT22;29438;50.664;10.098;2023-02-28T05:13:33;-3273.30;87.60
43808;DHT22;29438;50.664;10.098;2023-02-28T05:16:00;-3273.20;87.50
43808;DHT22;29438;50.664;10.098;2023-02-28T05:18:25;-3273.20;87.50
43808;DHT22;29438;50.664;10.098;2023-02-28T05:20:51;-3273.30;87.60
43808;DHT22;29438;50.664;10.098;2023-02-28T05:23:17;-3273.40;86.90
43808;DHT22;29438;50.664;10.098;2023-02-28T05:25:44;-3273.40;86.60
43808;DHT22;29438;50.664;10.098;2023-02-28T05:28:10;-3273.30;86.60
43808;DHT22;29438;50.664;10.098;2023-02-28T05:30:35;-3273.20;87.20
43808;DHT22;29438;50.664;10.098;2023-02-28T05:33:01;-3273.20;87.30
43808;DHT22;29438;50.664;10.098;2023-02-28T05:35:26;-3273.20;87.20
43808;DHT22;29438;50.664;10.098;2023-02-28T05:37:52;-3273.20;86.90
43808;DHT22;29438;50.664;10.098;2023-02-28T05:40:18;-3273.30;86.60
43808;DHT22;29438;50.664;10.098;2023-02-28T05:42:45;-3273.20;86.70
43808;DHT22;29438;50.664;10.098;2023-02-28T05:45:11;-3273.20;86.70
43808;DHT22;29438;50.664;10.098;2023-02-28T05:47:36;-3273.30;86.50
43808;DHT22;29438;50.664;10.098;2023-02-28T05:50:03;-3273.20;86.30
43808;DHT22;29438;50.664;10.098;2023-02-28T05:52:28;-3273.20;86.60
43808;DHT22;29438;50.664;10.098;2023-02-28T05:54:55;-3273.00;86.80
43808;DHT22;29438;50.664;10.098;2023-02-28T05:57:21;-3273.20;86.70
43808;DHT22;29438;50.664;10.098;2023-02-28T05:59:46;-3273.20;86.30
43808;DHT22;29438;50.664;10.098;2023-02-28T06:02:14;-3273.20;86.10
43808;DHT22;29438;50.664;10.098;2023-02-28T06:04:39;-3273.00;86.50
43808;DHT22;29438;50.664;10.098;2023-02-28T06:07:06;-3273.00;86.50
43808;DHT22;29438;50.664;10.098;2023-02-28T06:09:32;-3272.90;86.60
43808;DHT22;29438;50.664;10.098;2023-02-28T06:12:03;-3272.90;87.00
43808;DHT22;29438;50.664;10.098;2023-02-28T06:14:31;-3272.90;86.90
43808;DHT22;29438;50.664;10.098;2023-02-28T06:16:58;-3272.80;87.00
43808;DHT22;29438;50.664;10.098;2023-02-28T06:19:24;-3272.80;87.00
43808;DHT22;29438;50.664;10.098;2023-02-28T06:21:54;-3272.70;87.20
43808;DHT22;29438;50.664;10.098;2023-02-28T06:24:20;-3272.60;87.40
43808;DHT22;29438;50.664;10.098;2023-02-28T06:26:46;-3272.70;87.70
43808;DHT22;29438;50.664;10.098;2023-02-28T06:29:12;-3273.00;88.00
43808;DHT22;29438;50.664;10.098;2023-02-28T06:31:37;-3273.50;87.10
43808;DHT22;29438;50.664;10.098;2023-02-28T06:34:04;-3273.90;85.30
43808;DHT22;29438;50.664;10.098;2023-02-28T06:36:30;-3274.20;84.20
43808;DHT22;29438;50.664;10.098;2023-02-28T06:38:56;-3274.20;82.90
43808;DHT22;29438;50.664;10.098;2023-02-28T06:41:25;-3274.00;83.00
43808;DHT22;29438;50.664;10.098;2023-02-28T06:43:51;-3274.10;83.50
43808;DHT22;29438;50.664;10.098;2023-02-28T06:46:17;-3273.80;82.70
43808;DHT22;29438;50.664;10.098;2023-02-28T06:48:44;-3273.70;83.60
43808;DHT22;29438;50.664;10.098;2023-02-28T06:51:13;-3273.90;83.90
43808;DHT22;29438;50.664;10.098;2023-02-28T06:53:39;-3274.10;83.70
43808;DHT22;29438;50.664;10.098;2023-02-28T06:56:10;-3275.20;82.60
43808;DHT22;29438;50.664;10.098;2023-02-28T06:58:36;-3276.40;79.10
43808;DHT22;29438;50.664;10.098;2023-02-28T07:01:03;-3276.40;75.10
43808;DHT22;29438;50.664;10.098;2023-02-28T07:03:29;-3275.60;75.80
43808;DHT22;29438;50.664;10.098;2023-02-28T07:05:55;-3274.80;78.50
43808;DHT22;29438;50.664;10.098;2023-02-28T07:08:22;-3274.60;79.50
43808;DHT22;29438;50.664;10.098;2023-02-28T07:10:51;-3274.40;80.30
43808;DHT22;29438;50.664;10.098;2023-02-28T07:13:17;-3274.50;80.20
43808;DHT22;29438;50.664;10.098;2023-02-28T07:15:43;-3274.80;80.40
43808;DHT22;29438;50.664;10.098;2023-02-28T07:18:08;-3274.90;78.90
43808;DHT22;29438;50.664;10.098;2023-02-28T07:20:34;-3274.80;79.20
43808;DHT22;29438;50.664;10.098;2023-02-28T07:22:59;-3274.90;79.30
43808;DHT22;29438;50.664;10.098;2023-02-28T07:25:26;-3275.40;78.30
43808;DHT22;29438;50.664;10.098;2023-02-28T07:27:53;-3275.30;77.70
43808;DHT22;29438;50.664;10.098;2023-02-28T07:30:19;-3275.10;78.10
43808;DHT22;29438;50.664;10.098;2023-02-28T07:32:44;-3275.00;78.50
43808;DHT22;29438;50.664;10.098;2023-02-28T07:35:10;-3275.00;78.00
43808;DHT22;29438;50.664;10.098;2023-02-28T07:37:36;-3275.40;78.00
43808;DHT22;29438;50.664;10.098;2023-02-28T07:40:07;-3276.20;76.10
43808;DHT22;29438;50.664;10.098;2023-02-28T07:42:43;0.00;72.70
43808;DHT22;29438;50.664;10.098;2023-02-28T07:45:10;0.90;69.30
43808;DHT22;29438;50.664;10.098;2023-02-28T07:47:37;1.20;69.70
43808;DHT22;29438;50.664;10.098;2023-02-28T07:50:05;0.50;69.30
43808;DHT22;29438;50.664;10.098;2023-02-28T07:52:31;-3276.70;71.60
43808;DHT22;29438;50.664;10.098;2023-02-28T07:54:57;0.00;72.70
43808;DHT22;29438;50.664;10.098;2023-02-28T07:57:23;-3276.40;72.10
43808;DHT22;29438;50.664;10.098;2023-02-28T07:59:48;-3276.40;73.00
43808;DHT22;29438;50.664;10.098;2023-02-28T08:02:16;0.10;71.40
43808;DHT22;29438;50.664;10.098;2023-02-28T08:04:41;0.70;69.40
43808;DHT22;29438;50.664;10.098;2023-02-28T08:07:07;1.10;67.90
43808;DHT22;29438;50.664;10.098;2023-02-28T08:09:33;1.50;66.70
43808;DHT22;29438;50.664;10.098;2023-02-28T08:11:59;1.40;66.10
43808;DHT22;29438;50.664;10.098;2023-02-28T08:14:24;1.70;65.60
43808;DHT22;29438;50.664;10.098;2023-02-28T08:16:50;1.20;65.60
43808;DHT22;29438;50.664;10.098;2023-02-28T08:19:16;0.90;66.00
43808;DHT22;29438;50.664;10.098;2023-02-28T08:21:41;0.90;67.10
43808;DHT22;29438;50.664;10.098;2023-02-28T08:24:07;1.50;66.90
43808;DHT22;29438;50.664;10.098;2023-02-28T08:26:33;1.20;66.90
43808;DHT22;29438;50.664;10.098;2023-02-28T08:28:58;2.10;64.90
43808;DHT22;29438;50.664;10.098;2023-02-28T08:31:24;2.10;62.60
43808;DHT22;29438;50.664;10.098;2023-02-28T08:33:49;1.70;62.30
43808;DHT22;29438;50.664;10.098;2023-02-28T08:36:17;0.80;64.80
43808;DHT22;29438;50.664;10.098;2023-02-28T08:38:42;0.10;66.90
43808;DHT22;29438;50.664;10.098;2023-02-28T08:41:10;0.40;66.40
43808;DHT22;29438;50.664;10.098;2023-02-28T08:43:36;1.00;65.00
43808;DHT22;29438;50.664;10.098;2023-02-28T08:46:02;1.10;63.10
43808;DHT22;29438;50.664;10.098;2023-02-28T08:48:30;0.60;64.50
43808;DHT22;29438;50.664;10.098;2023-02-28T08:51:01;0.50;64.60
43808;DHT22;29438;50.664;10.098;2023-02-28T08:53:27;0.50;65.40
43808;DHT22;29438;50.664;10.098;2023-02-28T08:56:22;1.30;64.90
43808;DHT22;29438;50.664;10.098;2023-02-28T08:58:48;1.60;61.60
43808;DHT22;29438;50.664;10.098;2023-02-28T09:01:16;1.20;63.60
43808;DHT22;29438;50.664;10.098;2023-02-28T09:03:43;1.30;62.00
43808;DHT22;29438;50.664;10.098;2023-02-28T09:06:10;1.60;60.90
43808;DHT22;29438;50.664;10.098;2023-02-28T09:08:36;1.80;60.80
43808;DHT22;29438;50.664;10.098;2023-02-28T09:11:02;1.80;60.90
43808;DHT22;29438;50.664;10.098;2023-02-28T09:13:29;1.40;59.60
43808;DHT22;29438;50.664;10.098;2023-02-28T09:15:58;2.00;60.30
43808;DHT22;29438;50.664;10.098;2023-02-28T09:18:24;2.10;58.90
43808;DHT22;29438;50.664;10.098;2023-02-28T09:20:49;2.00;58.70
43808;DHT22;29438;50.664;10.098;2023-02-28T09:23:16;1.40;59.70
43808;DHT22;29438;50.664;10.098;2023-02-28T09:25:46;0.90;61.90
43808;DHT22;29438;50.664;10.098;2023-02-28T09:28:12;0.50;62.60
43808;DHT22;29438;50.664;10.098;2023-02-28T09:30:39;0.30;61.80
43808;DHT22;29438;50.664;10.098;2023-02-28T09:33:05;0.50;61.40
43808;DHT22;29438;50.664;10.098;2023-02-28T09:35:30;0.60;63.00
43808;DHT22;29438;50.664;10.098;2023-02-28T09:37:56;0.70;63.10
43808;DHT22;29438;50.664;10.098;2023-02-28T09:40:24;1.30;59.70
43808;DHT22;29438;50.664;10.098;2023-02-28T09:42:55;1.60;60.50
43808;DHT22;29438;50.664;10.098;2023-02-28T09:45:29;1.30;61.50
43808;DHT22;29438;50.664;10.098;2023-02-28T09:48:00;1.40;62.60
43808;DHT22;29438;50.664;10.098;2023-02-28T09:50:35;0.80;62.80
43808;DHT22;29438;50.664;10.098;2023-02-28T09:53:26;0.30;64.80
43808;DHT22;29438;50.664;10.098;2023-02-28T09:56:24;0.20;64.10
43808;DHT22;29438;50.664;10.098;2023-02-28T09:58:58;0.50;65.00
43808;DHT22;29438;50.664;10.098;2023-02-28T10:01:27;0.60;63.30
43808;DHT22;29438;50.664;10.098;2023-02-28T10:04:13;0.00;61.10
43808;DHT22;29438;50.664;10.098;2023-02-28T10:06:46;0.10;62.80
43808;DHT22;29438;50.664;10.098;2023-02-28T10:09:24;0.20;63.10
43808;DHT22;29438;50.664;10.098;2023-02-28T10:11:52;0.60;61.40
43808;DHT22;29438;50.664;10.098;2023-02-28T10:14:18;1.00;61.40
43808;DHT22;29438;50.664;10.098;2023-02-28T10:16:54;1.30;62.30
43808;DHT22;29438;50.664;10.098;2023-02-28T10:19:50;1.80;60.50
43808;DHT22;29438;50.664;10.098;2023-02-28T10:22:34;1.50;59.50
43808;DHT22;29438;50.664;10.098;2023-02-28T10:25:04;1.30;59.70
43808;DHT22;29438;50.664;10.098;2023-02-28T10:27:31;0.80;60.50
43808;DHT22;29438;50.664;10.098;2023-02-28T10:29:59;0.60;61.60
43808;DHT22;29438;50.664;10.098;2023-02-28T10:32:31;0.80;60.30
43808;DHT22;29438;50.664;10.098;2023-02-28T10:37:32;1.50;60.40
43808;DHT22;29438;50.664;10.098;2023-02-28T10:40:03;1.00;58.10
43808;DHT22;29438;50.664;10.098;2023-02-28T10:42:32;1.20;60.30
43808;DHT22;29438;50.664;10.098;2023-02-28T10:48:03;1.10;58.60
43808;DHT22;29438;50.664;10.098;2023-02-28T10:50:56;0.70;61.00
43808;DHT22;29438;50.664;10.098;2023-02-28T10:58:29;0.70;59.70
43808;DHT22;29438;50.664;10.098;2023-02-28T11:00:55;0.40;60.80
43808;DHT22;29438;50.664;10.098;2023-02-28T11:03:34;0.20;60.70
43808;DHT22;29438;50.664;10.098;2023-02-28T11:06:11;0.10;61.40
43808;DHT22;29438;50.664;10.098;2023-02-28T11:08:59;0.20;62.00
43808;DHT22;29438;50.664;10.098;2023-02-28T11:11:28;0.10;62.00
43808;DHT22;29438;50.664;10.098;2023-02-28T11:14:02;0.00;63.20
43808;DHT22;29438;50.664;10.098;2023-02-28T11:16:34;0.00;62.20
43808;DHT22;29438;50.664;10.098;2023-02-28T11:19:01;0.10;61.70
43808;DHT22;29438;50.664;10.098;2023-02-28T11:21:30;0.20;61.40
43808;DHT22;29438;50.664;10.098;2023-02-28T11:26:39;0.90;61.30
43808;DHT22;29438;50.664;10.098;2023-02-28T11:29:24;1.60;58.40
43808;DHT22;29438;50.664;10.098;2023-02-28T11:34:35;1.20;58.40
43808;DHT22;29438;50.664;10.098;2023-02-28T11:37:02;1.80;58.50
43808;DHT22;29438;50.664;10.098;2023-02-28T11:39:31;2.40;56.70
43808;DHT22;29438;50.664;10.098;2023-02-28T11:45:11;2.80;55.00
43808;DHT22;29438;50.664;10.098;2023-02-28T11:50:24;2.50;56.60
43808;DHT22;29438;50.664;10.098;2023-02-28T11:55:49;2.00;56.50
43808;DHT22;29438;50.664;10.098;2023-02-28T12:06:48;1.10;57.80
43808;DHT22;29438;50.664;10.098;2023-02-28T12:17:55;1.50;58.40
43808;DHT22;29438;50.664;10.098;2023-02-28T12:20:23;1.50;57.70
43808;DHT22;29438;50.664;10.098;2023-02-28T12:25:44;1.70;58.30
43808;DHT22;29438;50.664;10.098;2023-02-28T12:28:16;1.80;58.90
43808;DHT22;29438;50.664;10.098;2023-02-28T12:30:51;1.70;57.00
43808;DHT22;29438;50.664;10.098;2023-02-28T12:33:22;1.60;57.40
43808;DHT22;29438;50.664;10.098;2023-02-28T12:35:57;1.60;57.30
43808;DHT22;29438;50.664;10.098;2023-02-28T12:38:36;1.80;57.50
43808;DHT22;29438;50.664;10.098;2023-02-28T12:41:15;2.30;58.00
43808;DHT22;29438;50.664;10.098;2023-02-28T12:43:48;2.30;56.60
43808;DHT22;29438;50.664;10.098;2023-02-28T12:46:21;2.20;57.00
43808;DHT22;29438;50.664;10.098;2023-02-28T12:48:55;2.10;57.60
43808;DHT22;29438;50.664;10.098;2023-02-28T12:51:21;1.90;58.80
43808;DHT22;29438;50.664;10.098;2023-02-28T12:54:15;2.30;58.80
43808;DHT22;29438;50.664;10.098;2023-02-28T12:59:24;2.20;57.30
43808;DHT22;29438;50.664;10.098;2023-02-28T13:02:01;2.50;59.20
43808;DHT22;29438;50.664;10.098;2023-02-28T13:04:45;2.50;59.60
43808;DHT22;29438;50.664;10.098;2023-02-28T13:10:02;1.90;59.50
43808;DHT22;29438;50.664;10.098;2023-02-28T13:12:29;2.10;59.60
43808;DHT22;29438;50.664;10.098;2023-02-28T13:15:05;2.10;61.40
43808;DHT22;29438;50.664;10.098;2023-02-28T13:17:32;2.20;58.80
43808;DHT22;29438;50.664;10.098;2023-02-28T13:19:59;2.00;60.90
43808;DHT22;29438;50.664;10.098;2023-02-28T13:24:55;2.10;61.40
43808;DHT22;29438;50.664;10.098;2023-02-28T13:27:37;1.90;61.70
43808;DHT22;29438;50.664;10.098;2023-02-28T13:33:26;2.00;60.30
43808;DHT22;29438;50.664;10.098;2023-02-28T13:52:18;1.90;60.00
43808;DHT22;29438;50.664;10.098;2023-02-28T13:58:09;2.00;60.60
43808;DHT22;29438;50.664;10.098;2023-02-28T14:01:08;2.10;60.90
43808;DHT22;29438;50.664;10.098;2023-02-28T14:09:01;1.80;59.60
43808;DHT22;29438;50.664;10.098;2023-02-28T14:11:40;1.90;59.50
43808;DHT22;29438;50.664;10.098;2023-02-28T14:14:08;2.00;60.00
43808;DHT22;29438;50.664;10.098;2023-02-28T14:16:47;2.10;60.50
43808;DHT22;29438;50.664;10.098;2023-02-28T14:19:24;2.00;60.60
43808;DHT22;29438;50.664;10.098;2023-02-28T14:22:08;1.90;60.30
43808;DHT22;29438;50.664;10.098;2023-02-28T14:27:35;2.00;60.10
43808;DHT22;29438;50.664;10.098;2023-02-28T14:38:26;2.00;60.00
43808;DHT22;29438;50.664;10.098;2023-02-28T14:40:55;1.80;60.00
43808;DHT22;29438;50.664;10.098;2023-02-28T14:43:24;1.80;60.10
43808;DHT22;29438;50.664;10.098;2023-02-28T14:45:53;1.80;59.20
43808;DHT22;29438;50.664;10.098;2023-02-28T14:48:21;2.00;59.70
43808;DHT22;29438;50.664;10.098;2023-02-28T14:50:53;1.90;59.80
43808;DHT22;29438;50.664;10.098;2023-02-28T14:53:21;1.80;60.20
43808;DHT22;29438;50.664;10.098;2023-02-28T14:55:48;1.80;61.00
43808;DHT22;29438;50.664;10.098;2023-02-28T14:58:29;1.80;59.90
43808;DHT22;29438;50.664;10.098;2023-02-28T15:00:57;1.70;60.50
43808;DHT22;29438;50.664;10.098;2023-02-28T15:03:24;1.70;60.30
43808;DHT22;29438;50.664;10.098;2023-02-28T15:05:58;1.70;60.80
43808;DHT22;29438;50.664;10.098;2023-02-28T15:08:25;1.60;60.60
43808;DHT22;29438;50.664;10.098;2023-02-28T15:10:57;1.70;60.50
43808;DHT22;29438;50.664;10.098;2023-02-28T15:13:30;1.70;62.00
43808;DHT22;29438;50.664;10.098;2023-02-28T15:16:03;1.70;61.40
43808;DHT22;29438;50.664;10.098;2023-02-28T15:18:42;1.50;62.70
43808;DHT22;29438;50.664;10.098;2023-02-28T15:21:29;1.50;63.50
43808;DHT22;29438;50.664;10.098;2023-02-28T15:24:01;1.40;62.50
43808;DHT22;29438;50.664;10.098;2023-02-28T15:26:36;1.40;63.70
43808;DHT22;29438;50.664;10.098;2023-02-28T15:29:19;1.30;63.70
43808;DHT22;29438;50.664;10.098;2023-02-28T15:31:55;1.30;63.90
43808;DHT22;29438;50.664;10.098;2023-02-28T15:36:52;1.30;64.50
43808;DHT22;29438;50.664;10.098;2023-02-28T15:39:26;1.20;64.20
43808;DHT22;29438;50.664;10.098;2023-02-28T15:42:09;1.20;64.80
43808;DHT22;29438;50.664;10.098;2023-02-28T15:44:35;1.10;64.90
43808;DHT22;29438;50.664;10.098;2023-02-28T15:47:18;1.00;64.70
43808;DHT22;29438;50.664;10.098;2023-02-28T15:49:51;1.00;66.10
43808;DHT22;29438;50.664;10.098;2023-02-28T15:52:21;1.00;63.80
43808;DHT22;29438;50.664;10.098;2023-02-28T15:54:47;1.10;64.50
43808;DHT22;29438;50.664;10.098;2023-02-28T15:57:19;1.00;64.90
43808;DHT22;29438;50.664;10.098;2023-02-28T15:59:54;0.90;64.20
43808;DHT22;29438;50.664;10.098;2023-02-28T16:02:35;0.90;64.60
43808;DHT22;29438;50.664;10.098;2023-02-28T16:07:40;0.90;65.90
43808;DHT22;29438;50.664;10.098;2023-02-28T16:10:09;0.80;65.60
43808;DHT22;29438;50.664;10.098;2023-02-28T16:12:37;0.70;65.50
43808;DHT22;29438;50.664;10.098;2023-02-28T16:15:17;0.70;66.60
43808;DHT22;29438;50.664;10.098;2023-02-28T16:17:43;0.60;66.90
43808;DHT22;29438;50.664;10.098;2023-02-28T16:20:21;0.50;67.70
43808;DHT22;29438;50.664;10.098;2023-02-28T16:22:47;0.40;67.10
43808;DHT22;29438;50.664;10.098;2023-02-28T16:25:18;0.40;67.20
43808;DHT22;29438;50.664;10.098;2023-02-28T16:27:50;0.30;67.30
43808;DHT22;29438;50.664;10.098;2023-02-28T16:30:25;0.30;67.90
43808;DHT22;29438;50.664;10.098;2023-02-28T16:32:51;0.30;68.50
43808;DHT22;29438;50.664;10.098;2023-02-28T16:35:18;0.30;68.20
43808;DHT22;29438;50.664;10.098;2023-02-28T16:37:45;0.20;68.20
43808;DHT22;29438;50.664;10.098;2023-02-28T16:40:19;0.10;68.90
43808;DHT22;29438;50.664;10.098;2023-02-28T16:42:47;0.00;69.00
43808;DHT22;29438;50.664;10.098;2023-02-28T16:45:31;0.00;69.50
43808;DHT22;29438;50.664;10.098;2023-02-28T16:47:57;0.00;69.60
43808;DHT22;29438;50.664;10.098;2023-02-28T16:50:25;-3276.70;69.90
43808;DHT22;29438;50.664;10.098;2023-02-28T16:52:51;0.00;69.60
43808;DHT22;29438;50.664;10.098;2023-02-28T16:55:18;-3276.70;70.00
43808;DHT22;29438;50.664;10.098;2023-02-28T16:58:19;-3276.60;70.40
43808;DHT22;29438;50.664;10.098;2023-02-28T17:00:37;-3276.60;70.50
43808;DHT22;29438;50.664;10.098;2023-02-28T17:03:03;-3276.50;71.00
43808;DHT22;29438;50.664;10.098;2023-02-28T17:05:34;-3276.50;71.00
43808;DHT22;29438;50.664;10.098;2023-02-28T17:08:02;-3276.40;71.40
43808;DHT22;29438;50.664;10.098;2023-02-28T17:10:29;-3276.40;71.90
43808;DHT22;29438;50.664;10.098;2023-02-28T17:12:54;-3276.40;71.60
43808;DHT22;29438;50.664;10.098;2023-02-28T17:15:20;-3276.40;71.70
43808;DHT22;29438;50.664;10.098;2023-02-28T17:17:46;-3276.50;71.00
43808;DHT22;29438;50.664;10.098;2023-02-28T17:20:17;-3276.40;71.40
43808;DHT22;29438;50.664;10.098;2023-02-28T17:22:43;-3276.40;72.00
43808;DHT22;29438;50.664;10.098;2023-02-28T17:25:09;-3276.40;71.70
43808;DHT22;29438;50.664;10.098;2023-02-28T17:27:36;-3276.20;72.50